sensor_id;sensor_type;location;lat;lon;timestamp;temperature;humidity
15413;DHT22;7805;49.554;7.632;2022-08-03T00:00:40;20.60;99.90
15413;DHT22;7805;49.554;7.632;2022-08-03T00:03:07;20.60;99.90
15413;DHT22;7805;49.554;7.632;2022-08-03T00:05:32;20.50;99.90
15413;DHT22;7805;49.554;7.632;2022-08-03T00:08:01;20.40;99.90
15413;DHT22;7805;49.554;7.632;2022-08-03T00:10:27;20.40;99.90
15413;DHT22;7805;49.554;7.632;2022-08-03T00:12:53;20.30;99.90
15413;DHT22;7805;49.554;7.632;2022-08-03T00:15:19;20.30;99.90
15413;DHT22;7805;49.554;7.632;2022-08-03T00:17:44;20.20;99.90
15413;DHT22;7805;49.554;7.632;2022-08-03T00:20:10;20.10;99.90
15413;DHT22;7805;49.554;7.632;2022-08-03T00:22:36;20.10;99.90
15413;DHT22;7805;49.554;7.632;2022-08-03T00:25:02;20.10;99.90
15413;DHT22;7805;49.554;7.632;2022-08-03T00:27:28;20.10;99.90
15413;DHT22;7805;49.554;7.632;2022-08-03T00:29:53;20.10;99.90
15413;DHT22;7805;49.554;7.632;2022-08-03T00:32:19;20.10;99.90
15413;DHT22;7805;49.554;7.632;2022-08-03T00:34:44;20.00;99.90
15413;DHT22;7805;49.554;7.632;2022-08-03T00:37:10;19.90;99.90
15413;DHT22;7805;49.554;7.632;2022-08-03T00:39:36;19.90;99.90
15413;DHT22;7805;49.554;7.632;2022-08-03T00:42:04;19.90;99.90
15413;DHT22;7805;49.554;7.632;2022-08-03T00:44:30;19.80;99.90
15413;DHT22;7805;49.554;7.632;2022-08-03T00:46:56;19.80;99.90
15413;DHT22;7805;49.554;7.632;2022-08-03T00:49:22;19.70;99.90
15413;DHT22;7805;49.554;7.632;2022-08-03T00:51:48;19.60;99.90
15413;DHT22;7805;49.554;7.632;2022-08-03T00:54:14;19.50;99.90
15413;DHT22;7805;49.554;7.632;2022-08-03T00:56:40;19.60;99.90
15413;DHT22;7805;49.554;7.632;2022-08-03T00:59:09;19.60;99.90
15413;DHT22;7805;49.554;7.632;2022-08-03T01:01:34;19.60;99.90
15413;DHT22;7805;49.554;7.632;2022-08-03T01:04:00;19.70;99.90
15413;DHT22;7805;49.554;7.632;2022-08-03T01:06:51;19.60;99.90
15413;DHT22;7805;49.554;7.632;2022-08-03T01:12:07;19.60;99.90
15413;DHT22;7805;49.554;7.632;2022-08-03T01:14:51;19.60;99.90
15413;DHT22;7805;49.554;7.632;2022-08-03T01:17:27;19.50;99.90
15413;DHT22;7805;49.554;7.632;2022-08-03T01:20:06;19.50;99.90
15413;DHT22;7805;49.554;7.632;2022-08-03T01:26:01;19.40;99.90
15413;DHT22;7805;49.554;7.632;2022-08-03T01:28:54;19.40;99.90
15413;DHT22;7805;49.554;7.632;2022-08-03T01:31:26;19.30;99.90
15413;DHT22;7805;49.554;7.632;2022-08-03T01:34:01;19.20;99.90
15413;DHT22;7805;49.554;7.632;2022-08-03T01:36:32;19.20;99.90
15413;DHT22;7805;49.554;7.632;2022-08-03T01:39:02;19.20;99.90
15413;DHT22;7805;49.554;7.632;2022-08-03T01:41:30;19.30;99.90
15413;DHT22;7805;49.554;7.632;2022-08-03T01:44:00;19.20;99.90
15413;DHT22;7805;49.554;7.632;2022-08-03T01:46:27;19.10;99.90
15413;DHT22;7805;49.554;7.632;2022-08-03T01:48:54;19.10;99.90
15413;DHT22;7805;49.554;7.632;2022-08-03T01:51:21;19.00;99.90
15413;DHT22;7805;49.554;7.632;2022-08-03T01:53:49;19.00;99.90
15413;DHT22;7805;49.554;7.632;2022-08-03T01:56:18;19.00;99.90
15413;DHT22;7805;49.554;7.632;2022-08-03T01:58:45;18.90;99.90
15413;DHT22;7805;49.554;7.632;2022-08-03T02:01:12;18.90;99.90
15413;DHT22;7805;49.554;7.632;2022-08-03T02:03:41;18.90;99.90
15413;DHT22;7805;49.554;7.632;2022-08-03T02:06:12;18.90;99.90
15413;DHT22;7805;49.554;7.632;2022-08-03T02:08:39;18.80;99.90
15413;DHT22;7805;49.554;7.632;2022-08-03T02:11:06;18.70;99.90
15413;DHT22;7805;49.554;7.632;2022-08-03T02:13:36;18.60;99.90
15413;DHT22;7805;49.554;7.632;2022-08-03T02:16:03;18.60;99.90
15413;DHT22;7805;49.554;7.632;2022-08-03T02:18:30;18.50;99.90
15413;DHT22;7805;49.554;7.632;2022-08-03T02:21:02;18.50;99.90
15413;DHT22;7805;49.554;7.632;2022-08-03T02:23:29;18.40;99.90
15413;DHT22;7805;49.554;7.632;2022-08-03T02:26:02;18.40;99.90
15413;DHT22;7805;49.554;7.632;2022-08-03T02:28:32;18.30;99.90
15413;DHT22;7805;49.554;7.632;2022-08-03T02:31:04;18.30;99.90
15413;DHT22;7805;49.554;7.632;2022-08-03T02:33:35;18.30;99.90
15413;DHT22;7805;49.554;7.632;2022-08-03T02:36:03;18.30;99.90
15413;DHT22;7805;49.554;7.632;2022-08-03T02:38:33;18.30;99.90
15413;DHT22;7805;49.554;7.632;2022-08-03T02:41:04;18.20;99.90
15413;DHT22;7805;49.554;7.632;2022-08-03T02:43:34;18.90;99.90
15413;DHT22;7805;49.554;7.632;2022-08-03T02:46:00;18.20;99.90
15413;DHT22;7805;49.554;7.632;2022-08-03T02:48:28;18.20;99.90
15413;DHT22;7805;49.554;7.632;2022-08-03T02:50:57;18.10;99.90
15413;DHT22;7805;49.554;7.632;2022-08-03T02:53:24;18.10;99.90
15413;DHT22;7805;49.554;7.632;2022-08-03T02:55:52;18.30;99.90
15413;DHT22;7805;49.554;7.632;2022-08-03T02:58:19;18.10;99.90
15413;DHT22;7805;49.554;7.632;2022-08-03T03:00:46;18.00;99.90
15413;DHT22;7805;49.554;7.632;2022-08-03T03:03:13;18.00;99.90
15413;DHT22;7805;49.554;7.632;2022-08-03T03:05:40;18.00;99.90
15413;DHT22;7805;49.554;7.632;2022-08-03T03:08:07;18.00;99.90
15413;DHT22;7805;49.554;7.632;2022-08-03T03:10:33;18.00;99.90
15413;DHT22;7805;49.554;7.632;2022-08-03T03:13:00;17.90;99.90
15413;DHT22;7805;49.554;7.632;2022-08-03T03:15:27;17.90;99.90
15413;DHT22;7805;49.554;7.632;2022-08-03T03:17:54;17.90;99.90
15413;DHT22;7805;49.554;7.632;2022-08-03T03:20:21;17.80;99.90
15413;DHT22;7805;49.554;7.632;2022-08-03T03:22:48;17.80;99.90
15413;DHT22;7805;49.554;7.632;2022-08-03T03:25:14;17.80;99.90
15413;DHT22;7805;49.554;7.632;2022-08-03T03:27:40;18.00;99.90
15413;DHT22;7805;49.554;7.632;2022-08-03T03:30:07;17.80;99.90
15413;DHT22;7805;49.554;7.632;2022-08-03T03:32:33;17.80;99.90
15413;DHT22;7805;49.554;7.632;2022-08-03T03:35:01;17.70;99.90
15413;DHT22;7805;49.554;7.632;2022-08-03T03:37:27;18.40;99.90
15413;DHT22;7805;49.554;7.632;2022-08-03T03:39:53;17.80;99.90
15413;DHT22;7805;49.554;7.632;2022-08-03T03:42:19;17.70;99.90
15413;DHT22;7805;49.554;7.632;2022-08-03T03:44:45;17.70;99.90
15413;DHT22;7805;49.554;7.632;2022-08-03T03:47:11;17.60;99.90
15413;DHT22;7805;49.554;7.632;2022-08-03T03:49:38;17.60;99.90
15413;DHT22;7805;49.554;7.632;2022-08-03T03:52:04;17.60;99.90
15413;DHT22;7805;49.554;7.632;2022-08-03T03:54:42;15.60;99.90
15413;DHT22;7805;49.554;7.632;2022-08-03T03:57:09;17.60;99.90
15413;DHT22;7805;49.554;7.632;2022-08-03T03:59:42;17.50;99.90
15413;DHT22;7805;49.554;7.632;2022-08-03T04:02:09;17.50;99.90
15413;DHT22;7805;49.554;7.632;2022-08-03T04:04:36;17.50;99.90
15413;DHT22;7805;49.554;7.632;2022-08-03T04:07:23;17.40;99.90
15413;DHT22;7805;49.554;7.632;2022-08-03T04:10:26;17.50;99.90
15413;DHT22;7805;49.554;7.632;2022-08-03T04:13:13;17.50;99.90
15413;DHT22;7805;49.554;7.632;2022-08-03T04:15:40;17.50;99.90
15413;DHT22;7805;49.554;7.632;2022-08-03T04:18:08;17.70;99.90
15413;DHT22;7805;49.554;7.632;2022-08-03T04:20:37;17.50;99.90
15413;DHT22;7805;49.554;7.632;2022-08-03T04:23:05;17.40;99.90
15413;DHT22;7805;49.554;7.632;2022-08-03T04:25:33;17.50;99.90
15413;DHT22;7805;49.554;7.632;2022-08-03T04:28:02;17.50;99.90
15413;DHT22;7805;49.554;7.632;2022-08-03T04:30:29;17.40;99.90
15413;DHT22;7805;49.554;7.632;2022-08-03T04:32:57;17.40;99.90
15413;DHT22;7805;49.554;7.632;2022-08-03T04:35:28;17.50;99.90
15413;DHT22;7805;49.554;7.632;2022-08-03T04:38:00;17.40;99.90
15413;DHT22;7805;49.554;7.632;2022-08-03T04:40:30;17.40;99.90
15413;DHT22;7805;49.554;7.632;2022-08-03T04:42:58;17.30;99.90
15413;DHT22;7805;49.554;7.632;2022-08-03T04:45:24;17.20;99.90
15413;DHT22;7805;49.554;7.632;2022-08-03T04:47:51;17.20;99.90
15413;DHT22;7805;49.554;7.632;2022-08-03T04:50:18;17.20;99.90
15413;DHT22;7805;49.554;7.632;2022-08-03T04:52:44;17.20;99.90
15413;DHT22;7805;49.554;7.632;2022-08-03T04:55:10;17.20;99.90
15413;DHT22;7805;49.554;7.632;2022-08-03T04:57:35;17.20;99.90
15413;DHT22;7805;49.554;7.632;2022-08-03T05:00:02;17.30;99.90
15413;DHT22;7805;49.554;7.632;2022-08-03T05:02:28;17.40;99.90
15413;DHT22;7805;49.554;7.632;2022-08-03T05:04:54;17.50;99.90
15413;DHT22;7805;49.554;7.632;2022-08-03T05:07:20;17.50;99.90
15413;DHT22;7805;49.554;7.632;2022-08-03T05:09:45;17.60;99.90
15413;DHT22;7805;49.554;7.632;2022-08-03T05:12:11;17.70;99.90
15413;DHT22;7805;49.554;7.632;2022-08-03T05:14:37;17.50;99.90
15413;DHT22;7805;49.554;7.632;2022-08-03T05:17:07;17.50;99.90
15413;DHT22;7805;49.554;7.632;2022-08-03T05:19:33;17.50;99.90
15413;DHT22;7805;49.554;7.632;2022-08-03T05:21:59;17.70;99.90
15413;DHT22;7805;49.554;7.632;2022-08-03T05:24:24;17.40;99.90
15413;DHT22;7805;49.554;7.632;2022-08-03T05:26:50;17.40;99.90
15413;DHT22;7805;49.554;7.632;2022-08-03T05:29:15;17.50;99.90
15413;DHT22;7805;49.554;7.632;2022-08-03T05:31:41;17.60;99.90
15413;DHT22;7805;49.554;7.632;2022-08-03T05:34:07;17.80;99.90
15413;DHT22;7805;49.554;7.632;2022-08-03T05:36:32;17.90;99.90
15413;DHT22;7805;49.554;7.632;2022-08-03T05:38:58;18.20;99.90
15413;DHT22;7805;49.554;7.632;2022-08-03T05:41:23;18.50;99.90
15413;DHT22;7805;49.554;7.632;2022-08-03T05:43:53;18.80;99.90
15413;DHT22;7805;49.554;7.632;2022-08-03T05:46:20;19.10;99.90
15413;DHT22;7805;49.554;7.632;2022-08-03T05:48:46;19.40;99.90
15413;DHT22;7805;49.554;7.632;2022-08-03T05:51:12;19.60;99.90
15413;DHT22;7805;49.554;7.632;2022-08-03T05:53:38;19.70;99.90
15413;DHT22;7805;49.554;7.632;2022-08-03T05:56:04;20.00;99.90
15413;DHT22;7805;49.554;7.632;2022-08-03T05:58:30;20.30;99.90
15413;DHT22;7805;49.554;7.632;2022-08-03T06:00:56;20.50;99.90
15413;DHT22;7805;49.554;7.632;2022-08-03T06:03:21;20.70;99.90
15413;DHT22;7805;49.554;7.632;2022-08-03T06:05:47;20.90;99.90
15413;DHT22;7805;49.554;7.632;2022-08-03T06:08:12;21.10;99.90
15413;DHT22;7805;49.554;7.632;2022-08-03T06:10:38;21.30;99.90
15413;DHT22;7805;49.554;7.632;2022-08-03T06:13:04;21.40;99.90
15413;DHT22;7805;49.554;7.632;2022-08-03T06:15:29;21.70;99.90
15413;DHT22;7805;49.554;7.632;2022-08-03T06:17:58;22.00;99.90
15413;DHT22;7805;49.554;7.632;2022-08-03T06:20:23;22.40;99.90
15413;DHT22;7805;49.554;7.632;2022-08-03T06:22:49;22.70;99.90
15413;DHT22;7805;49.554;7.632;2022-08-03T06:25:14;22.80;99.90
15413;DHT22;7805;49.554;7.632;2022-08-03T06:27:41;22.90;99.80
15413;DHT22;7805;49.554;7.632;2022-08-03T06:30:08;22.90;99.90
15413;DHT22;7805;49.554;7.632;2022-08-03T06:32:41;23.10;99.70
15413;DHT22;7805;49.554;7.632;2022-08-03T06:35:08;23.40;99.40
15413;DHT22;7805;49.554;7.632;2022-08-03T06:37:47;23.50;98.90
15413;DHT22;7805;49.554;7.632;2022-08-03T06:40:15;23.70;98.30
15413;DHT22;7805;49.554;7.632;2022-08-03T06:42:42;23.80;98.20
15413;DHT22;7805;49.554;7.632;2022-08-03T06:45:08;23.90;98.50
15413;DHT22;7805;49.554;7.632;2022-08-03T06:47:36;24.20;98.00
15413;DHT22;7805;49.554;7.632;2022-08-03T06:50:02;24.40;97.70
15413;DHT22;7805;49.554;7.632;2022-08-03T06:52:28;24.70;97.50
15413;DHT22;7805;49.554;7.632;2022-08-03T06:54:54;25.20;96.90
15413;DHT22;7805;49.554;7.632;2022-08-03T06:57:19;25.10;96.60
15413;DHT22;7805;49.554;7.632;2022-08-03T06:59:45;25.50;96.10
15413;DHT22;7805;49.554;7.632;2022-08-03T07:02:10;25.80;95.30
15413;DHT22;7805;49.554;7.632;2022-08-03T07:04:36;25.80;95.20
15413;DHT22;7805;49.554;7.632;2022-08-03T07:07:02;25.60;94.70
15413;DHT22;7805;49.554;7.632;2022-08-03T07:09:27;25.80;95.20
15413;DHT22;7805;49.554;7.632;2022-08-03T07:11:53;26.00;94.90
15413;DHT22;7805;49.554;7.632;2022-08-03T07:14:20;26.00;94.50
15413;DHT22;7805;49.554;7.632;2022-08-03T07:16:45;26.40;94.60
15413;DHT22;7805;49.554;7.632;2022-08-03T07:19:11;26.80;94.10
15413;DHT22;7805;49.554;7.632;2022-08-03T07:21:36;27.10;93.70
15413;DHT22;7805;49.554;7.632;2022-08-03T07:24:02;27.40;92.90
15413;DHT22;7805;49.554;7.632;2022-08-03T07:26:28;27.20;92.50
15413;DHT22;7805;49.554;7.632;2022-08-03T07:28:54;27.40;92.40
15413;DHT22;7805;49.554;7.632;2022-08-03T07:31:19;27.70;91.90
15413;DHT22;7805;49.554;7.632;2022-08-03T07:33:45;29.30;92.20
15413;DHT22;7805;49.554;7.632;2022-08-03T07:36:10;28.40;91.20
15413;DHT22;7805;49.554;7.632;2022-08-03T07:38:36;28.70;90.50
15413;DHT22;7805;49.554;7.632;2022-08-03T07:41:02;29.00;90.30
15413;DHT22;7805;49.554;7.632;2022-08-03T07:43:28;29.30;89.50
15413;DHT22;7805;49.554;7.632;2022-08-03T07:45:54;29.60;88.10
15413;DHT22;7805;49.554;7.632;2022-08-03T07:48:20;29.80;86.50
15413;DHT22;7805;49.554;7.632;2022-08-03T07:50:46;29.70;85.80
15413;DHT22;7805;49.554;7.632;2022-08-03T07:53:11;29.90;85.10
15413;DHT22;7805;49.554;7.632;2022-08-03T07:55:37;30.20;80.80
15413;DHT22;7805;49.554;7.632;2022-08-03T07:58:05;30.30;81.00
15413;DHT22;7805;49.554;7.632;2022-08-03T08:00:32;30.60;77.90
15413;DHT22;7805;49.554;7.632;2022-08-03T08:02:58;31.10;74.40
15413;DHT22;7805;49.554;7.632;2022-08-03T08:05:24;31.40;71.40
15413;DHT22;7805;49.554;7.632;2022-08-03T08:07:50;31.60;69.60
15413;DHT22;7805;49.554;7.632;2022-08-03T08:10:15;31.90;67.60
15413;DHT22;7805;49.554;7.632;2022-08-03T08:12:41;32.30;65.30
15413;DHT22;7805;49.554;7.632;2022-08-03T08:15:07;32.50;63.40
15413;DHT22;7805;49.554;7.632;2022-08-03T08:17:45;32.50;60.90
15413;DHT22;7805;49.554;7.632;2022-08-03T08:20:15;32.50;58.00
15413;DHT22;7805;49.554;7.632;2022-08-03T08:22:41;32.40;57.80
15413;DHT22;7805;49.554;7.632;2022-08-03T08:25:07;32.50;59.10
15413;DHT22;7805;49.554;7.632;2022-08-03T08:27:32;32.50;57.60
15413;DHT22;7805;49.554;7.632;2022-08-03T08:29:58;32.40;56.50
15413;DHT22;7805;49.554;7.632;2022-08-03T08:32:24;32.60;56.90
15413;DHT22;7805;49.554;7.632;2022-08-03T08:34:49;32.60;56.00
15413;DHT22;7805;49.554;7.632;2022-08-03T08:37:15;32.60;56.10
15413;DHT22;7805;49.554;7.632;2022-08-03T08:39:40;32.50;56.00
15413;DHT22;7805;49.554;7.632;2022-08-03T08:42:06;32.40;54.70
15413;DHT22;7805;49.554;7.632;2022-08-03T08:44:32;32.40;55.40
15413;DHT22;7805;49.554;7.632;2022-08-03T08:47:01;32.70;54.70
15413;DHT22;7805;49.554;7.632;2022-08-03T08:49:28;33.00;54.20
15413;DHT22;7805;49.554;7.632;2022-08-03T08:51:55;33.50;54.10
15413;DHT22;7805;49.554;7.632;2022-08-03T08:54:22;33.80;52.60
15413;DHT22;7805;49.554;7.632;2022-08-03T08:56:50;33.80;52.50
15413;DHT22;7805;49.554;7.632;2022-08-03T08:59:17;33.80;52.30
15413;DHT22;7805;49.554;7.632;2022-08-03T09:01:43;34.10;51.70
15413;DHT22;7805;49.554;7.632;2022-08-03T09:04:08;33.90;50.10
15413;DHT22;7805;49.554;7.632;2022-08-03T09:06:34;33.80;50.50
15413;DHT22;7805;49.554;7.632;2022-08-03T09:09:00;33.80;51.00
15413;DHT22;7805;49.554;7.632;2022-08-03T09:11:26;34.10;51.10
15413;DHT22;7805;49.554;7.632;2022-08-03T09:13:51;34.50;50.40
15413;DHT22;7805;49.554;7.632;2022-08-03T09:16:21;34.70;49.80
15413;DHT22;7805;49.554;7.632;2022-08-03T09:18:49;35.00;48.20
15413;DHT22;7805;49.554;7.632;2022-08-03T09:23:46;33.70;48.50
15413;DHT22;7805;49.554;7.632;2022-08-03T09:26:18;33.80;48.70
15413;DHT22;7805;49.554;7.632;2022-08-03T09:28:44;33.70;48.60
15413;DHT22;7805;49.554;7.632;2022-08-03T09:31:09;33.90;49.30
15413;DHT22;7805;49.554;7.632;2022-08-03T09:33:46;33.80;48.30
15413;DHT22;7805;49.554;7.632;2022-08-03T09:39:12;33.60;48.00
15413;DHT22;7805;49.554;7.632;2022-08-03T09:41:39;33.70;48.70
15413;DHT22;7805;49.554;7.632;2022-08-03T09:44:06;34.00;48.80
15413;DHT22;7805;49.554;7.632;2022-08-03T09:46:41;34.10;48.10
15413;DHT22;7805;49.554;7.632;2022-08-03T09:49:11;34.40;48.30
15413;DHT22;7805;49.554;7.632;2022-08-03T09:51:38;34.50;47.70
15413;DHT22;7805;49.554;7.632;2022-08-03T09:54:04;34.10;47.70
15413;DHT22;7805;49.554;7.632;2022-08-03T09:56:44;34.80;47.20
15413;DHT22;7805;49.554;7.632;2022-08-03T09:59:12;34.80;46.70
15413;DHT22;7805;49.554;7.632;2022-08-03T10:01:39;35.10;47.20
15413;DHT22;7805;49.554;7.632;2022-08-03T10:04:11;35.30;46.70
15413;DHT22;7805;49.554;7.632;2022-08-03T10:06:38;35.00;46.10
15413;DHT22;7805;49.554;7.632;2022-08-03T10:09:12;35.00;46.20
15413;DHT22;7805;49.554;7.632;2022-08-03T10:11:39;34.60;45.10
15413;DHT22;7805;49.554;7.632;2022-08-03T10:14:07;34.50;46.10
15413;DHT22;7805;49.554;7.632;2022-08-03T10:16:37;34.80;46.00
15413;DHT22;7805;49.554;7.632;2022-08-03T10:19:06;35.00;45.50
15413;DHT22;7805;49.554;7.632;2022-08-03T10:21:37;34.60;45.20
15413;DHT22;7805;49.554;7.632;2022-08-03T10:24:04;34.90;46.10
15413;DHT22;7805;49.554;7.632;2022-08-03T10:26:35;35.40;45.70
15413;DHT22;7805;49.554;7.632;2022-08-03T10:29:05;34.60;44.50
15413;DHT22;7805;49.554;7.632;2022-08-03T10:31:41;35.50;45.10
15413;DHT22;7805;49.554;7.632;2022-08-03T10:34:16;35.50;44.20
15413;DHT22;7805;49.554;7.632;2022-08-03T10:36:44;35.60;44.10
15413;DHT22;7805;49.554;7.632;2022-08-03T10:39:12;35.60;44.30
15413;DHT22;7805;49.554;7.632;2022-08-03T10:41:40;35.70;43.50
15413;DHT22;7805;49.554;7.632;2022-08-03T10:44:16;35.60;43.80
15413;DHT22;7805;49.554;7.632;2022-08-03T10:46:43;35.70;43.60
15413;DHT22;7805;49.554;7.632;2022-08-03T10:49:14;35.40;43.30
15413;DHT22;7805;49.554;7.632;2022-08-03T10:51:44;35.40;43.60
15413;DHT22;7805;49.554;7.632;2022-08-03T10:57:02;35.10;43.20
15413;DHT22;7805;49.554;7.632;2022-08-03T11:02:13;35.40;44.10
15413;DHT22;7805;49.554;7.632;2022-08-03T11:04:39;35.70;44.10
15413;DHT22;7805;49.554;7.632;2022-08-03T11:07:21;36.20;43.60
15413;DHT22;7805;49.554;7.632;2022-08-03T11:09:49;36.50;42.60
15413;DHT22;7805;49.554;7.632;2022-08-03T11:14:47;36.50;42.50
15413;DHT22;7805;49.554;7.632;2022-08-03T11:17:13;36.40;42.30
15413;DHT22;7805;49.554;7.632;2022-08-03T11:19:46;36.30;42.10
15413;DHT22;7805;49.554;7.632;2022-08-03T11:22:12;36.30;42.00
15413;DHT22;7805;49.554;7.632;2022-08-03T11:27:23;36.70;41.80
15413;DHT22;7805;49.554;7.632;2022-08-03T11:35:13;36.80;41.60
15413;DHT22;7805;49.554;7.632;2022-08-03T11:40:41;37.10;41.50
15413;DHT22;7805;49.554;7.632;2022-08-03T11:45:35;36.90;41.10
15413;DHT22;7805;49.554;7.632;2022-08-03T11:48:16;36.90;40.70
15413;DHT22;7805;49.554;7.632;2022-08-03T11:50:42;37.00;40.60
15413;DHT22;7805;49.554;7.632;2022-08-03T11:53:17;37.30;40.90
15413;DHT22;7805;49.554;7.632;2022-08-03T11:55:44;37.70;40.70
15413;DHT22;7805;49.554;7.632;2022-08-03T11:58:20;37.60;40.50
15413;DHT22;7805;49.554;7.632;2022-08-03T12:00:46;37.70;40.20
15413;DHT22;7805;49.554;7.632;2022-08-03T12:03:14;37.80;40.30
15413;DHT22;7805;49.554;7.632;2022-08-03T12:05:44;37.90;40.30
15413;DHT22;7805;49.554;7.632;2022-08-03T12:08:12;38.20;40.10
15413;DHT22;7805;49.554;7.632;2022-08-03T12:10:39;38.40;39.70
15413;DHT22;7805;49.554;7.632;2022-08-03T12:13:06;38.80;39.30
15413;DHT22;7805;49.554;7.632;2022-08-03T12:15:34;39.00;39.00
15413;DHT22;7805;49.554;7.632;2022-08-03T12:18:01;39.10;38.80
15413;DHT22;7805;49.554;7.632;2022-08-03T12:20:29;39.10;38.70
15413;DHT22;7805;49.554;7.632;2022-08-03T12:23:01;38.60;38.10
15413;DHT22;7805;49.554;7.632;2022-08-03T12:25:28;38.00;38.80
15413;DHT22;7805;49.554;7.632;2022-08-03T12:28:09;38.10;39.40
15413;DHT22;7805;49.554;7.632;2022-08-03T12:30:36;38.10;39.90
15413;DHT22;7805;49.554;7.632;2022-08-03T12:33:16;37.90;39.20
15413;DHT22;7805;49.554;7.632;2022-08-03T12:35:45;37.60;39.10
15413;DHT22;7805;49.554;7.632;2022-08-03T12:38:10;37.70;39.30
15413;DHT22;7805;49.554;7.632;2022-08-03T12:40:37;37.50;39.10
15413;DHT22;7805;49.554;7.632;2022-08-03T12:43:10;37.40;39.40
15413;DHT22;7805;49.554;7.632;2022-08-03T12:45:36;37.60;39.30
15413;DHT22;7805;49.554;7.632;2022-08-03T12:48:02;37.80;39.10
15413;DHT22;7805;49.554;7.632;2022-08-03T12:50:34;38.30;39.30
15413;DHT22;7805;49.554;7.632;2022-08-03T12:53:01;38.60;38.70
15413;DHT22;7805;49.554;7.632;2022-08-03T12:55:29;38.20;38.30
15413;DHT22;7805;49.554;7.632;2022-08-03T12:58:05;38.10;38.70
15413;DHT22;7805;49.554;7.632;2022-08-03T13:00:31;38.10;38.50
15413;DHT22;7805;49.554;7.632;2022-08-03T13:03:07;38.20;38.50
15413;DHT22;7805;49.554;7.632;2022-08-03T13:05:44;38.40;38.40
15413;DHT22;7805;49.554;7.632;2022-08-03T13:08:21;37.70;38.50
15413;DHT22;7805;49.554;7.632;2022-08-03T13:10:47;37.90;38.80
15413;DHT22;7805;49.554;7.632;2022-08-03T13:13:13;38.00;38.00
15413;DHT22;7805;49.554;7.632;2022-08-03T13:15:39;37.60;38.60
15413;DHT22;7805;49.554;7.632;2022-08-03T13:18:05;37.70;38.50
15413;DHT22;7805;49.554;7.632;2022-08-03T13:20:30;38.10;39.00
15413;DHT22;7805;49.554;7.632;2022-08-03T13:22:56;38.50;38.60
15413;DHT22;7805;49.554;7.632;2022-08-03T13:25:22;38.90;39.30
15413;DHT22;7805;49.554;7.632;2022-08-03T13:27:48;38.90;38.00
15413;DHT22;7805;49.554;7.632;2022-08-03T13:30:14;38.50;38.20
15413;DHT22;7805;49.554;7.632;2022-08-03T13:32:40;38.50;38.70
15413;DHT22;7805;49.554;7.632;2022-08-03T13:35:07;38.90;38.30
15413;DHT22;7805;49.554;7.632;2022-08-03T13:37:33;39.40;37.50
15413;DHT22;7805;49.554;7.632;2022-08-03T13:40:00;39.60;37.30
15413;DHT22;7805;49.554;7.632;2022-08-03T13:42:33;38.70;37.00
15413;DHT22;7805;49.554;7.632;2022-08-03T13:45:00;38.80;37.60
15413;DHT22;7805;49.554;7.632;2022-08-03T13:47:26;39.20;37.90
15413;DHT22;7805;49.554;7.632;2022-08-03T13:49:52;39.60;37.60
15413;DHT22;7805;49.554;7.632;2022-08-03T13:52:18;39.80;36.90
15413;DHT22;7805;49.554;7.632;2022-08-03T13:54:44;39.80;37.00
15413;DHT22;7805;49.554;7.632;2022-08-03T13:57:10;39.90;36.80
15413;DHT22;7805;49.554;7.632;2022-08-03T13:59:36;40.00;36.60
15413;DHT22;7805;49.554;7.632;2022-08-03T14:02:03;40.20;36.40
15413;DHT22;7805;49.554;7.632;2022-08-03T14:04:28;40.10;36.30
15413;DHT22;7805;49.554;7.632;2022-08-03T14:06:54;40.20;36.50
15413;DHT22;7805;49.554;7.632;2022-08-03T14:09:20;40.60;36.10
15413;DHT22;7805;49.554;7.632;2022-08-03T14:11:46;40.00;35.40
15413;DHT22;7805;49.554;7.632;2022-08-03T14:14:11;39.70;36.10
15413;DHT22;7805;49.554;7.632;2022-08-03T14:16:37;39.50;36.30
15413;DHT22;7805;49.554;7.632;2022-08-03T14:19:03;39.40;36.40
15413;DHT22;7805;49.554;7.632;2022-08-03T14:21:29;39.20;35.90
15413;DHT22;7805;49.554;7.632;2022-08-03T14:23:55;39.90;36.40
15413;DHT22;7805;49.554;7.632;2022-08-03T14:26:21;39.50;35.50
15413;DHT22;7805;49.554;7.632;2022-08-03T14:28:47;39.30;36.10
15413;DHT22;7805;49.554;7.632;2022-08-03T14:31:13;39.30;36.50
15413;DHT22;7805;49.554;7.632;2022-08-03T14:33:38;39.60;36.40
15413;DHT22;7805;49.554;7.632;2022-08-03T14:36:04;39.60;36.20
15413;DHT22;7805;49.554;7.632;2022-08-03T14:38:30;39.90;36.30
15413;DHT22;7805;49.554;7.632;2022-08-03T14:40:56;39.80;36.00
15413;DHT22;7805;49.554;7.632;2022-08-03T14:43:21;39.90;36.00
15413;DHT22;7805;49.554;7.632;2022-08-03T14:45:48;39.70;36.00
15413;DHT22;7805;49.554;7.632;2022-08-03T14:48:16;39.60;36.20
15413;DHT22;7805;49.554;7.632;2022-08-03T14:50:42;39.30;36.00
15413;DHT22;7805;49.554;7.632;2022-08-03T14:53:08;39.40;36.30
15413;DHT22;7805;49.554;7.632;2022-08-03T14:55:33;39.60;36.20
15413;DHT22;7805;49.554;7.632;2022-08-03T14:57:59;39.20;36.20
15413;DHT22;7805;49.554;7.632;2022-08-03T15:00:31;39.30;36.30
15413;DHT22;7805;49.554;7.632;2022-08-03T15:02:56;39.60;36.20
15413;DHT22;7805;49.554;7.632;2022-08-03T15:05:22;39.70;35.90
15413;DHT22;7805;49.554;7.632;2022-08-03T15:07:48;39.60;35.90
15413;DHT22;7805;49.554;7.632;2022-08-03T15:10:13;39.50;36.10
15413;DHT22;7805;49.554;7.632;2022-08-03T15:12:39;39.60;36.00
15413;DHT22;7805;49.554;7.632;2022-08-03T15:15:05;39.70;35.90
15413;DHT22;7805;49.554;7.632;2022-08-03T15:17:30;39.30;36.00
15413;DHT22;7805;49.554;7.632;2022-08-03T15:19:56;39.40;36.20
15413;DHT22;7805;49.554;7.632;2022-08-03T15:22:22;39.30;36.20
15413;DHT22;7805;49.554;7.632;2022-08-03T15:24:47;39.50;36.20
15413;DHT22;7805;49.554;7.632;2022-08-03T15:27:13;39.00;35.40
15413;DHT22;7805;49.554;7.632;2022-08-03T15:29:38;40.10;35.60
15413;DHT22;7805;49.554;7.632;2022-08-03T15:32:04;40.10;35.50
15413;DHT22;7805;49.554;7.632;2022-08-03T15:34:30;40.10;35.50
15413;DHT22;7805;49.554;7.632;2022-08-03T15:36:55;40.50;35.50
15413;DHT22;7805;49.554;7.632;2022-08-03T15:39:21;40.60;34.80
15413;DHT22;7805;49.554;7.632;2022-08-03T15:41:46;40.40;34.70
15413;DHT22;7805;49.554;7.632;2022-08-03T15:44:12;40.50;34.90
15413;DHT22;7805;49.554;7.632;2022-08-03T15:46:38;40.50;35.00
15413;DHT22;7805;49.554;7.632;2022-08-03T15:49:03;40.30;35.20
15413;DHT22;7805;49.554;7.632;2022-08-03T15:51:29;40.20;34.90
15413;DHT22;7805;49.554;7.632;2022-08-03T15:53:54;40.20;35.10
15413;DHT22;7805;49.554;7.632;2022-08-03T15:56:21;40.10;34.90
15413;DHT22;7805;49.554;7.632;2022-08-03T15:58:47;40.20;34.80
15413;DHT22;7805;49.554;7.632;2022-08-03T16:01:13;40.20;34.70
15413;DHT22;7805;49.554;7.632;2022-08-03T16:03:39;40.40;34.80
15413;DHT22;7805;49.554;7.632;2022-08-03T16:06:05;40.60;34.40
15413;DHT22;7805;49.554;7.632;2022-08-03T16:08:32;40.70;34.30
15413;DHT22;7805;49.554;7.632;2022-08-03T16:10:58;40.80;34.10
15413;DHT22;7805;49.554;7.632;2022-08-03T16:13:24;40.80;34.30
15413;DHT22;7805;49.554;7.632;2022-08-03T16:15:50;41.00;34.30
15413;DHT22;7805;49.554;7.632;2022-08-03T16:18:15;40.80;34.30
15413;DHT22;7805;49.554;7.632;2022-08-03T16:20:41;40.70;34.30